createdAt,value
2023-02-19T00:01:42.197Z,9.35
2023-02-19T00:03:57.785Z,9.40
2023-02-19T00:06:13.390Z,9.51
2023-02-19T00:08:31.528Z,9.51
2023-02-19T00:10:47.076Z,9.24
2023-02-19T00:13:05.153Z,9.24
2023-02-19T00:15:23.234Z,9.24
2023-02-19T00:17:38.832Z,9.29
2023-02-19T00:19:56.891Z,9.56
2023-02-19T00:22:14.975Z,9.56
2023-02-19T00:24:30.547Z,9.51
2023-02-19T00:26:44.139Z,9.24
2023-02-19T00:29:03.208Z,9.29
2023-02-19T00:31:21.413Z,9.24
2023-02-19T00:33:36.908Z,9.51
2023-02-19T00:35:52.452Z,9.18
2023-02-19T00:38:08.032Z,9.35
2023-02-19T00:40:23.630Z,9.02
2023-02-19T00:42:39.210Z,9.35
2023-02-19T00:44:57.516Z,9.02
2023-02-19T00:47:12.888Z,9.29
2023-02-19T00:49:30.988Z,9.02
2023-02-19T00:51:47.581Z,9.29
2023-02-19T00:54:05.672Z,9.35
2023-02-19T00:56:26.347Z,9.18
2023-02-19T00:58:41.835Z,9.08
2023-02-19T01:00:56.492Z,9.29
2023-02-19T01:03:14.549Z,8.97
2023-02-19T01:05:32.665Z,9.02
2023-02-19T01:07:49.262Z,9.35
2023-02-19T01:10:07.293Z,9.35
2023-02-19T01:12:27.888Z,9.29
2023-02-19T01:14:45.953Z,9.02
2023-02-19T01:17:04.108Z,9.02
2023-02-19T01:19:22.224Z,9.02
2023-02-19T01:21:37.959Z,9.02
2023-02-19T01:23:53.336Z,9.24
2023-02-19T01:26:11.436Z,9.24
2023-02-19T01:28:29.540Z,9.02
2023-02-19T01:30:47.629Z,9.29
2023-02-19T01:33:08.218Z,9.02
2023-02-19T01:35:26.289Z,9.08
2023-02-19T01:37:42.728Z,9.02
2023-02-19T01:39:58.297Z,9.35
2023-02-19T01:42:15.573Z,9.29
2023-02-19T01:44:29.157Z,9.29
2023-02-19T01:46:48.145Z,8.97
2023-02-19T01:49:05.304Z,9.13
2023-02-19T01:51:20.940Z,9.40
2023-02-19T01:53:37.469Z,9.13
2023-02-19T01:55:54.561Z,9.35
2023-02-19T01:58:10.242Z,8.81
2023-02-19T02:00:25.726Z,9.08
2023-02-19T02:02:41.330Z,9.35
2023-02-19T02:04:56.906Z,9.02
2023-02-19T02:07:11.481Z,9.02
2023-02-19T02:09:27.603Z,9.02
2023-02-19T02:11:45.174Z,9.02
2023-02-19T02:14:03.547Z,8.92
2023-02-19T02:16:18.954Z,8.92
2023-02-19T02:18:36.940Z,8.86
2023-02-19T02:20:51.495Z,9.13
2023-02-19T02:23:09.584Z,8.97
2023-02-19T02:25:27.676Z,9.13
2023-02-19T02:27:45.775Z,9.08
2023-02-19T02:30:01.363Z,8.86
2023-02-19T02:32:16.978Z,8.97
2023-02-19T02:34:35.013Z,8.92
2023-02-19T02:36:50.648Z,9.13
2023-02-19T02:39:06.233Z,9.02
2023-02-19T02:41:24.260Z,9.02
2023-02-19T02:43:39.849Z,8.92
2023-02-19T02:45:57.975Z,8.86
2023-02-19T02:48:16.020Z,8.86
2023-02-19T02:50:34.156Z,9.08
2023-02-19T02:52:52.191Z,9.13
2023-02-19T02:55:13.112Z,9.08
2023-02-19T02:57:29.536Z,8.86
2023-02-19T02:59:43.936Z,8.86
2023-02-19T03:02:02.252Z,8.86
2023-02-19T03:04:18.622Z,9.13
2023-02-19T03:06:36.718Z,8.81
2023-02-19T03:08:57.304Z,8.81
2023-02-19T03:11:12.877Z,8.81
2023-02-19T03:13:31.147Z,8.86
2023-02-19T03:15:50.041Z,8.92
2023-02-19T03:18:04.626Z,8.86
2023-02-19T03:20:19.196Z,8.86
2023-02-19T03:22:37.326Z,8.86
2023-02-19T03:24:53.980Z,9.08
2023-02-19T03:27:08.449Z,8.43
2023-02-19T03:29:23.053Z,8.81
2023-02-19T03:31:38.687Z,8.92
2023-02-19T03:33:56.771Z,8.86
2023-02-19T03:36:11.308Z,8.86
2023-02-19T03:38:29.378Z,9.40
2023-02-19T03:40:47.643Z,9.08
2023-02-19T03:43:08.104Z,8.97
2023-02-19T03:45:27.066Z,8.92
2023-02-19T03:47:46.896Z,9.13
2023-02-19T03:50:04.864Z,9.29
2023-02-19T03:52:20.454Z,9.02
2023-02-19T03:54:38.590Z,9.13
2023-02-19T03:56:59.240Z,9.29
2023-02-19T03:59:17.259Z,9.13
2023-02-19T04:01:35.299Z,9.18
2023-02-19T04:03:49.914Z,9.08
2023-02-19T04:06:07.947Z,9.35
2023-02-19T04:08:26.044Z,9.02
2023-02-19T04:10:41.677Z,9.08
2023-02-19T04:13:02.272Z,9.18
2023-02-19T04:15:17.797Z,9.24
2023-02-19T04:17:32.428Z,9.35
2023-02-19T04:19:50.458Z,9.29
2023-02-19T04:22:05.595Z,9.29
2023-02-19T04:24:21.149Z,9.35
2023-02-19T04:26:39.248Z,9.35
2023-02-19T04:28:54.841Z,9.29
2023-02-19T04:31:09.820Z,9.02
2023-02-19T04:33:30.440Z,9.02
2023-02-19T04:35:45.938Z,9.02
2023-02-19T04:38:02.461Z,9.35
2023-02-19T04:40:17.060Z,9.24
2023-02-19T04:42:32.648Z,9.18
2023-02-19T04:44:50.753Z,8.97
2023-02-19T04:47:06.335Z,9.35
2023-02-19T04:49:25.328Z,9.24
2023-02-19T04:51:39.959Z,9.29
2023-02-19T04:53:55.562Z,9.08
2023-02-19T04:56:11.461Z,9.35
2023-02-19T04:58:27.329Z,9.56
2023-02-19T05:00:42.901Z,9.24
2023-02-19T05:02:58.504Z,9.40
2023-02-19T05:05:12.098Z,9.40
2023-02-19T05:07:25.729Z,9.29
2023-02-19T05:09:37.777Z,9.51
2023-02-19T05:11:53.344Z,9.24
2023-02-19T05:14:05.427Z,9.29
2023-02-19T05:16:20.010Z,9.56
2023-02-19T05:18:35.613Z,9.56
2023-02-19T05:20:49.174Z,9.29
2023-02-19T05:23:07.272Z,9.51
2023-02-19T05:25:23.832Z,9.18
2023-02-19T05:27:37.452Z,9.35
2023-02-19T05:29:51.019Z,9.29
2023-02-19T05:32:07.645Z,9.29
2023-02-19T05:34:28.197Z,9.29
2023-02-19T05:36:42.765Z,9.51
2023-02-19T05:38:58.557Z,9.35
2023-02-19T05:41:14.033Z,9.51
2023-02-19T05:43:29.582Z,9.29
2023-02-19T05:45:43.261Z,9.02
2023-02-19T05:47:55.348Z,9.13
2023-02-19T05:50:08.944Z,9.35
2023-02-19T05:52:24.554Z,9.24
2023-02-19T05:54:38.112Z,9.24
2023-02-19T05:56:56.198Z,9.02
2023-02-19T05:59:09.822Z,9.35
2023-02-19T06:01:25.385Z,9.29
2023-02-19T06:03:39.103Z,9.29
2023-02-19T06:05:54.550Z,9.13
2023-02-19T06:08:11.703Z,9.29
2023-02-19T06:10:27.303Z,9.40
2023-02-19T06:12:42.888Z,9.08
2023-02-19T06:14:58.500Z,9.02
2023-02-19T06:17:14.052Z,9.45
2023-02-19T06:19:27.666Z,9.02
2023-02-19T06:21:43.276Z,9.02
2023-02-19T06:23:58.863Z,9.29
2023-02-19T06:26:14.515Z,9.13
2023-02-19T06:28:30.069Z,9.02
2023-02-19T06:30:45.671Z,9.13
2023-02-19T06:33:03.729Z,9.13
2023-02-19T06:35:21.855Z,9.02
2023-02-19T06:37:37.551Z,9.02
2023-02-19T06:39:52.983Z,9.29
2023-02-19T06:42:11.129Z,9.29
2023-02-19T06:44:26.650Z,9.08
2023-02-19T06:46:42.268Z,9.35
2023-02-19T06:48:57.864Z,9.24
2023-02-19T06:51:15.900Z,9.02
2023-02-19T06:53:31.532Z,9.29
2023-02-19T06:55:45.098Z,9.02
2023-02-19T06:58:06.356Z,9.02
2023-02-19T07:00:27.479Z,9.08
2023-02-19T07:02:48.174Z,8.97
2023-02-19T07:05:10.073Z,9.02
2023-02-19T07:07:29.090Z,9.29
2023-02-19T07:09:50.261Z,9.08
2023-02-19T07:13:47.538Z,9.35
2023-02-19T07:16:01.207Z,8.81
2023-02-19T07:18:17.733Z,8.97
2023-02-19T07:20:35.814Z,9.08
2023-02-19T07:22:53.911Z,9.29
2023-02-19T07:25:10.818Z,8.86
2023-02-19T07:27:29.870Z,8.86
2023-02-19T07:35:17.149Z,9.13
2023-02-19T07:37:35.310Z,9.08
2023-02-19T07:39:50.816Z,9.02
2023-02-19T07:42:06.393Z,8.86
2023-02-19T07:44:21.958Z,9.29
2023-02-19T07:46:40.063Z,8.86
2023-02-19T07:48:58.129Z,9.08
2023-02-19T07:51:13.979Z,9.02
2023-02-19T07:53:28.315Z,8.86
2023-02-19T07:55:43.892Z,9.18
2023-02-19T07:57:59.512Z,8.86
2023-02-19T08:00:12.566Z,8.92
2023-02-19T08:02:28.151Z,9.13
2023-02-19T08:04:43.745Z,9.13
2023-02-19T08:07:01.832Z,8.97
2023-02-19T08:09:17.440Z,8.92
2023-02-19T08:11:35.489Z,8.97
2023-02-19T08:13:49.179Z,9.13
2023-02-19T08:16:16.333Z,8.97
2023-02-19T08:18:20.338Z,8.97
2023-02-19T08:20:38.459Z,9.02
2023-02-19T08:22:56.558Z,9.13
2023-02-19T08:23:56.496Z,8.81
2023-02-19T08:26:18.605Z,9.18
2023-02-19T08:28:35.685Z,9.13
2023-02-19T08:30:53.800Z,8.86
2023-02-19T08:33:09.343Z,8.81
2023-02-19T08:35:29.950Z,9.02
2023-02-19T08:37:45.574Z,9.13
2023-02-19T08:40:01.149Z,9.08
2023-02-19T08:42:16.734Z,8.86
2023-02-19T08:44:34.823Z,8.97
2023-02-19T08:46:55.419Z,8.86
2023-02-19T08:49:12.034Z,9.08
2023-02-19T08:51:30.098Z,8.92
2023-02-19T08:53:48.138Z,8.86
2023-02-19T08:56:01.732Z,8.92
2023-02-19T08:58:19.805Z,9.02
2023-02-19T09:00:35.490Z,8.86
2023-02-19T09:02:53.721Z,8.92
2023-02-19T09:05:10.470Z,9.24
2023-02-19T09:07:23.728Z,8.75
2023-02-19T09:09:38.301Z,8.97
2023-02-19T09:11:53.921Z,8.70
2023-02-19T09:14:09.485Z,8.65
2023-02-19T09:16:28.720Z,8.92
2023-02-19T09:18:45.264Z,9.13
2023-02-19T09:21:03.223Z,8.65
2023-02-19T09:23:21.369Z,8.97
2023-02-19T09:25:47.885Z,8.97
2023-02-19T09:28:03.517Z,8.92
2023-02-19T09:30:19.111Z,8.92
2023-02-19T09:32:34.682Z,8.97
2023-02-19T09:34:52.754Z,8.92
2023-02-19T09:37:08.417Z,8.70
2023-02-19T09:39:26.492Z,8.97
2023-02-19T09:41:47.062Z,8.70
2023-02-19T09:44:02.728Z,8.65
2023-02-19T09:46:20.879Z,8.75
2023-02-19T09:48:38.902Z,8.70
2023-02-19T09:50:56.967Z,8.92
2023-02-19T09:53:11.558Z,8.65
2023-02-19T09:55:27.154Z,8.65
2023-02-19T09:57:42.757Z,8.92
2023-02-19T09:59:55.835Z,8.92
2023-02-19T10:02:13.893Z,8.75
2023-02-19T10:04:30.527Z,8.65
2023-02-19T10:06:46.430Z,8.97
2023-02-19T10:09:04.529Z,8.59
2023-02-19T10:11:17.580Z,8.65
2023-02-19T10:13:33.212Z,8.65
2023-02-19T10:15:48.848Z,8.81
2023-02-19T10:18:08.765Z,8.86
2023-02-19T10:20:23.597Z,8.81
2023-02-19T10:22:41.572Z,8.86
2023-02-19T10:24:55.251Z,8.70
2023-02-19T10:27:10.315Z,8.75
2023-02-19T10:29:25.891Z,8.65
2023-02-19T10:31:45.107Z,8.86
2023-02-19T10:34:03.078Z,8.75
2023-02-19T10:36:17.635Z,8.70
2023-02-19T10:38:30.763Z,8.65
2023-02-19T10:40:46.337Z,8.70
2023-02-19T10:43:04.458Z,8.43
2023-02-19T10:45:22.547Z,8.43
2023-02-19T10:47:37.129Z,8.97
2023-02-19T10:49:51.731Z,8.49
2023-02-19T10:52:09.825Z,8.65
2023-02-19T10:54:27.923Z,8.75
2023-02-19T10:56:45.937Z,8.70
2023-02-19T10:59:01.557Z,8.49
2023-02-19T11:01:16.118Z,8.49
2023-02-19T11:03:34.239Z,8.54
2023-02-19T11:05:49.838Z,8.75
2023-02-19T11:17:35.706Z,8.65
2023-02-19T11:59:16.298Z,8.43
2023-02-19T12:07:49.738Z,8.54
2023-02-19T12:29:58.334Z,8.65
2023-02-19T12:31:47.540Z,8.75
2023-02-19T12:34:07.417Z,8.49
2023-02-19T12:36:28.334Z,8.75
2023-02-19T12:38:44.948Z,8.54
2023-02-19T12:41:03.038Z,8.49
2023-02-19T12:43:23.641Z,8.70
2023-02-19T12:45:41.768Z,8.65
2023-02-19T12:48:02.805Z,8.54
2023-02-19T12:50:21.152Z,8.75
2023-02-19T12:53:42.981Z,8.43
2023-02-19T12:56:49.339Z,8.59
2023-02-19T13:00:44.225Z,8.33
2023-02-19T13:03:00.322Z,8.75
2023-02-19T13:05:22.695Z,8.49
2023-02-19T13:07:51.590Z,8.54
2023-02-19T13:14:40.593Z,8.49
2023-02-19T13:16:58.821Z,8.65
2023-02-19T13:19:16.387Z,8.27
2023-02-19T13:22:45.364Z,8.54
2023-02-19T13:25:03.559Z,8.54
2023-02-19T13:27:20.793Z,8.49
2023-02-19T13:33:15.371Z,8.70
2023-02-19T13:35:33.115Z,8.54
2023-02-19T13:37:53.834Z,8.27
2023-02-19T13:40:14.481Z,8.49
2023-02-19T13:42:33.897Z,8.49
2023-02-19T13:44:55.833Z,8.27
2023-02-19T13:47:08.222Z,8.33
2023-02-19T13:49:27.335Z,8.33
2023-02-19T13:51:45.495Z,8.43
2023-02-19T13:54:05.923Z,8.59
2023-02-19T13:56:26.692Z,8.33
2023-02-19T13:58:47.108Z,8.54
2023-02-19T14:01:07.752Z,8.43
2023-02-19T14:03:25.796Z,8.54
2023-02-19T14:05:46.432Z,8.33
2023-02-19T14:08:04.533Z,8.49
2023-02-19T14:10:25.360Z,8.54
2023-02-19T14:12:44.543Z,8.43
2023-02-19T14:15:03.630Z,8.33
2023-02-19T14:17:24.631Z,8.54
2023-02-19T14:19:43.439Z,8.27
2023-02-19T14:22:00.029Z,8.59
2023-02-19T14:24:20.589Z,8.33
2023-02-19T14:26:41.188Z,8.27
2023-02-19T14:28:59.354Z,8.33
2023-02-19T14:31:20.998Z,8.27
2023-02-19T14:33:41.258Z,8.43
2023-02-19T14:36:02.767Z,8.49
2023-02-19T14:38:21.927Z,8.27
2023-02-19T14:40:39.755Z,8.27
2023-02-19T14:43:01.281Z,8.49
2023-02-19T14:45:21.302Z,8.22
2023-02-19T14:47:36.906Z,8.59
2023-02-19T14:49:57.316Z,8.43
2023-02-19T14:52:14.122Z,8.38
2023-02-19T14:54:34.671Z,8.22
2023-02-19T14:56:56.416Z,8.27
2023-02-19T15:24:48.689Z,8.27
2023-02-19T15:31:41.327Z,8.33
2023-02-19T16:14:33.444Z,8.22
2023-02-19T16:28:38.534Z,8.22
2023-02-19T16:30:52.152Z,7.73
2023-02-19T16:33:10.192Z,8.16
2023-02-19T16:35:28.525Z,8.59
2023-02-19T16:37:47.469Z,8.49
2023-02-19T16:40:04.263Z,8.27
2023-02-19T16:42:25.638Z,8.06
2023-02-19T16:44:42.436Z,8.43
2023-02-19T16:47:38.845Z,8.49
2023-02-19T16:49:59.733Z,8.33
2023-02-19T16:54:56.230Z,8.49
2023-02-19T16:58:55.125Z,8.54
2023-02-19T17:53:03.548Z,8.27
2023-02-19T18:27:17.745Z,8.27
2023-02-19T18:29:43.036Z,8.11
2023-02-19T18:35:34.908Z,8.27
2023-02-19T20:21:20.158Z,7.90
2023-02-19T20:26:55.860Z,8.11
2023-02-19T20:29:12.844Z,7.95
2023-02-19T20:32:37.861Z,8.22
2023-02-19T20:34:59.371Z,8.11
2023-02-19T20:48:22.593Z,8.11
2023-02-19T20:50:40.851Z,7.90
2023-02-19T20:53:01.604Z,7.84
2023-02-19T20:55:16.719Z,8.22
2023-02-19T20:57:33.500Z,8.16
2023-02-19T20:59:54.011Z,8.11
2023-02-19T21:02:14.705Z,8.00
2023-02-19T21:04:34.891Z,7.84
2023-02-19T21:06:55.752Z,8.38
2023-02-19T21:09:10.073Z,8.16
2023-02-19T21:11:28.384Z,8.06
2023-02-19T21:13:46.551Z,7.90
2023-02-19T21:16:04.377Z,8.11
2023-02-19T21:18:25.434Z,8.00
2023-02-19T21:20:46.544Z,7.95
2023-02-19T21:23:07.397Z,8.38
2023-02-19T21:25:28.035Z,8.06
2023-02-19T21:27:49.165Z,8.16
2023-02-19T21:30:08.979Z,8.11
2023-02-19T21:32:25.605Z,7.90
2023-02-19T21:34:46.094Z,7.90
2023-02-19T21:37:06.893Z,8.16
2023-02-19T21:39:23.294Z,7.84
2023-02-19T21:41:44.192Z,7.95
2023-02-19T21:44:04.478Z,8.06
2023-02-19T21:46:25.414Z,8.06
2023-02-19T21:48:45.970Z,7.90
2023-02-19T21:51:06.695Z,8.16
2023-02-19T21:53:25.370Z,7.90
2023-02-19T21:55:57.501Z,8.16
2023-02-19T21:58:04.106Z,7.90
2023-02-19T22:00:24.824Z,8.11
2023-02-19T22:02:46.146Z,8.16
2023-02-19T22:05:06.319Z,7.90
2023-02-19T22:07:25.412Z,8.11
2023-02-19T22:09:46.067Z,7.84
2023-02-19T22:12:07.356Z,7.95
2023-02-19T22:14:28.185Z,7.90
2023-02-19T22:16:48.847Z,8.16
2023-02-19T22:19:07.508Z,8.16
2023-02-19T22:21:27.594Z,7.84
2023-02-19T22:23:48.619Z,8.11
2023-02-19T22:26:06.627Z,7.90
2023-02-19T22:28:23.229Z,8.11
2023-02-19T22:30:39.899Z,7.90
2023-02-19T22:33:00.451Z,8.27
2023-02-19T22:35:21.149Z,8.11
2023-02-19T22:37:36.377Z,8.06
2023-02-19T22:39:57.468Z,7.90
2023-02-19T22:42:15.841Z,7.90
2023-02-19T22:44:32.434Z,7.84
2023-02-19T22:46:52.883Z,8.16
2023-02-19T22:49:14.051Z,7.95
2023-02-19T22:51:35.063Z,7.95
2023-02-19T22:53:55.854Z,7.90
2023-02-19T22:56:14.024Z,7.95
2023-02-19T22:58:32.041Z,8.11
2023-02-19T23:00:51.125Z,7.90
2023-02-19T23:03:11.578Z,8.22
2023-02-19T23:05:32.362Z,7.90
2023-02-19T23:07:52.891Z,8.16
2023-02-19T23:10:13.548Z,7.90
2023-02-19T23:13:24.645Z,8.11
2023-02-19T23:15:39.528Z,8.06
2023-02-19T23:17:57.352Z,7.95
2023-02-19T23:20:15.421Z,7.84
2023-02-19T23:22:36.001Z,7.73
2023-02-19T23:24:57.584Z,8.11
2023-02-19T23:27:14.950Z,8.16
2023-02-19T23:29:32.959Z,7.95
2023-02-19T23:31:54.094Z,8.11
2023-02-19T23:34:11.748Z,7.95
2023-02-19T23:36:29.959Z,8.11
2023-02-19T23:38:50.814Z,7.90
2023-02-19T23:41:06.024Z,8.06
2023-02-19T23:43:24.183Z,7.90
2023-02-19T23:45:44.839Z,7.90
2023-02-19T23:48:03.029Z,8.00
2023-02-19T23:50:21.035Z,7.90
2023-02-19T23:52:39.196Z,8.16
2023-02-19T23:54:55.681Z,8.16
2023-02-19T23:57:16.218Z,8.11
2023-02-19T23:59:37.653Z,7.84
